sensor_id;sensor_type;location;lat;lon;timestamp;pressure;altitude;pressure_sealevel;temperature;humidity
39177;BME280;24904;52.208;21.192;2023-03-20T00:01:30;100502.77;;;6.70;54.77
39177;BME280;24904;52.208;21.192;2023-03-20T00:06:33;100501.55;;;6.66;55.16
39177;BME280;24904;52.208;21.192;2023-03-20T00:11:40;100493.70;;;6.56;55.18
39177;BME280;24904;52.208;21.192;2023-03-20T00:16:47;100490.91;;;6.53;55.25
39177;BME280;24904;52.208;21.192;2023-03-20T00:21:51;100486.11;;;6.55;55.26
39177;BME280;24904;52.208;21.192;2023-03-20T00:26:54;100483.39;;;6.58;54.87
39177;BME280;24904;52.208;21.192;2023-03-20T00:31:58;100482.52;;;6.58;54.91
39177;BME280;24904;52.208;21.192;2023-03-20T00:37:01;100484.89;;;6.59;55.11
39177;BME280;24904;52.208;21.192;2023-03-20T00:42:06;100478.59;;;6.62;54.86
39177;BME280;24904;52.208;21.192;2023-03-20T00:47:15;100478.79;;;6.63;54.78
39177;BME280;24904;52.208;21.192;2023-03-20T00:52:19;100471.11;;;6.62;54.84
39177;BME280;24904;52.208;21.192;2023-03-20T00:57:25;100468.05;;;6.62;54.85
39177;BME280;24904;52.208;21.192;2023-03-20T01:02:29;100462.47;;;6.60;54.96
39177;BME280;24904;52.208;21.192;2023-03-20T01:07:33;100461.38;;;6.57;54.77
39177;BME280;24904;52.208;21.192;2023-03-20T01:12:39;100461.19;;;6.56;55.08
39177;BME280;24904;52.208;21.192;2023-03-20T01:17:43;100462.20;;;6.59;54.95
39177;BME280;24904;52.208;21.192;2023-03-20T01:22:46;100459.82;;;6.60;55.09
39177;BME280;24904;52.208;21.192;2023-03-20T01:27:51;100462.39;;;6.60;54.96
39177;BME280;24904;52.208;21.192;2023-03-20T01:32:54;100461.54;;;6.60;55.06
39177;BME280;24904;52.208;21.192;2023-03-20T01:37:58;100461.52;;;6.62;55.39
39177;BME280;24904;52.208;21.192;2023-03-20T01:43:02;100460.16;;;6.66;55.91
39177;BME280;24904;52.208;21.192;2023-03-20T01:48:14;100454.76;;;6.65;55.45
39177;BME280;24904;52.208;21.192;2023-03-20T01:53:20;100453.29;;;6.68;55.28
39177;BME280;24904;52.208;21.192;2023-03-20T01:58:36;100446.67;;;6.68;55.63
39177;BME280;24904;52.208;21.192;2023-03-20T02:03:43;100444.77;;;6.68;55.90
39177;BME280;24904;52.208;21.192;2023-03-20T02:08:56;100440.75;;;6.66;56.04
39177;BME280;24904;52.208;21.192;2023-03-20T02:14:00;100434.68;;;6.61;55.75
39177;BME280;24904;52.208;21.192;2023-03-20T02:19:16;100431.23;;;6.60;55.77
39177;BME280;24904;52.208;21.192;2023-03-20T02:25:02;100426.05;;;6.59;55.62
39177;BME280;24904;52.208;21.192;2023-03-20T02:30:45;100431.02;;;6.63;55.70
39177;BME280;24904;52.208;21.192;2023-03-20T02:36:24;100423.00;;;6.61;55.65
39177;BME280;24904;52.208;21.192;2023-03-20T02:41:36;100419.33;;;6.55;55.63
39177;BME280;24904;52.208;21.192;2023-03-20T02:46:46;100418.73;;;6.56;55.65
39177;BME280;24904;52.208;21.192;2023-03-20T02:52:00;100410.65;;;6.54;55.99
39177;BME280;24904;52.208;21.192;2023-03-20T02:57:10;100410.85;;;6.50;55.91
39177;BME280;24904;52.208;21.192;2023-03-20T03:02:22;100408.73;;;6.50;56.04
39177;BME280;24904;52.208;21.192;2023-03-20T03:07:31;100413.17;;;6.49;55.96
39177;BME280;24904;52.208;21.192;2023-03-20T03:12:37;100413.44;;;6.46;56.34
39177;BME280;24904;52.208;21.192;2023-03-20T03:17:44;100412.63;;;6.39;56.77
39177;BME280;24904;52.208;21.192;2023-03-20T03:22:50;100416.73;;;6.30;56.93
39177;BME280;24904;52.208;21.192;2023-03-20T03:27:58;100412.03;;;6.23;56.74
39177;BME280;24904;52.208;21.192;2023-03-20T03:33:12;100412.70;;;6.19;57.07
39177;BME280;24904;52.208;21.192;2023-03-20T03:38:29;100414.30;;;6.13;57.17
39177;BME280;24904;52.208;21.192;2023-03-20T03:43:40;100410.88;;;6.11;57.30
39177;BME280;24904;52.208;21.192;2023-03-20T03:48:49;100406.34;;;6.07;57.74
39177;BME280;24904;52.208;21.192;2023-03-20T03:53:57;100400.91;;;5.95;57.53
39177;BME280;24904;52.208;21.192;2023-03-20T03:59:05;100394.27;;;5.87;57.32
39177;BME280;24904;52.208;21.192;2023-03-20T04:04:12;100389.70;;;5.80;57.53
39177;BME280;24904;52.208;21.192;2023-03-20T04:09:16;100388.35;;;5.75;57.81
39177;BME280;24904;52.208;21.192;2023-03-20T04:14:20;100387.14;;;5.71;58.14
39177;BME280;24904;52.208;21.192;2023-03-20T04:19:23;100389.25;;;5.66;58.16
39177;BME280;24904;52.208;21.192;2023-03-20T04:24:26;100395.35;;;5.60;58.13
39177;BME280;24904;52.208;21.192;2023-03-20T04:29:29;100395.05;;;5.55;58.37
39177;BME280;24904;52.208;21.192;2023-03-20T04:34:51;100397.28;;;5.51;58.40
39177;BME280;24904;52.208;21.192;2023-03-20T04:40:12;100395.10;;;5.49;58.53
39177;BME280;24904;52.208;21.192;2023-03-20T04:45:17;100396.75;;;5.45;58.56
39177;BME280;24904;52.208;21.192;2023-03-20T04:50:22;100395.16;;;5.41;58.81
39177;BME280;24904;52.208;21.192;2023-03-20T04:55:26;100399.75;;;5.39;59.04
39177;BME280;24904;52.208;21.192;2023-03-20T05:00:30;100397.30;;;5.33;59.19
39177;BME280;24904;52.208;21.192;2023-03-20T05:05:33;100397.22;;;5.30;59.19
39177;BME280;24904;52.208;21.192;2023-03-20T05:10:39;100403.36;;;5.30;59.45
39177;BME280;24904;52.208;21.192;2023-03-20T05:16:02;100405.72;;;5.33;59.62
39177;BME280;24904;52.208;21.192;2023-03-20T05:21:41;100405.00;;;5.37;60.03
39177;BME280;24904;52.208;21.192;2023-03-20T05:27:02;100403.63;;;5.41;59.99
39177;BME280;24904;52.208;21.192;2023-03-20T05:39:03;100405.35;;;5.46;60.02
39177;BME280;24904;52.208;21.192;2023-03-20T05:44:42;100411.00;;;5.60;60.08
39177;BME280;24904;52.208;21.192;2023-03-20T05:50:11;100410.00;;;5.75;60.82
39177;BME280;24904;52.208;21.192;2023-03-20T05:55:34;100410.77;;;5.94;60.53
39177;BME280;24904;52.208;21.192;2023-03-20T06:01:01;100413.39;;;6.11;60.70
39177;BME280;24904;52.208;21.192;2023-03-20T06:06:22;100417.36;;;6.27;60.41
39177;BME280;24904;52.208;21.192;2023-03-20T06:11:26;100414.36;;;6.45;60.05
39177;BME280;24904;52.208;21.192;2023-03-20T06:16:29;100411.06;;;6.67;59.31
39177;BME280;24904;52.208;21.192;2023-03-20T06:21:33;100414.94;;;6.89;59.11
39177;BME280;24904;52.208;21.192;2023-03-20T06:26:37;100418.19;;;7.12;58.35
39177;BME280;24904;52.208;21.192;2023-03-20T06:31:44;100409.35;;;7.33;57.96
39177;BME280;24904;52.208;21.192;2023-03-20T06:36:56;100412.77;;;7.52;57.39
39177;BME280;24904;52.208;21.192;2023-03-20T06:41:59;100414.31;;;7.70;57.15
39177;BME280;24904;52.208;21.192;2023-03-20T06:47:04;100413.98;;;7.94;56.95
39177;BME280;24904;52.208;21.192;2023-03-20T06:52:07;100417.27;;;8.15;56.85
39177;BME280;24904;52.208;21.192;2023-03-20T06:57:13;100414.16;;;8.37;56.52
39177;BME280;24904;52.208;21.192;2023-03-20T07:02:18;100410.93;;;8.63;55.77
39177;BME280;24904;52.208;21.192;2023-03-20T07:07:22;100411.33;;;8.88;55.66
39177;BME280;24904;52.208;21.192;2023-03-20T07:12:25;100410.69;;;9.13;55.22
39177;BME280;24904;52.208;21.192;2023-03-20T07:17:33;100411.81;;;9.38;55.07
39177;BME280;24904;52.208;21.192;2023-03-20T07:22:37;100410.37;;;9.61;54.86
39177;BME280;24904;52.208;21.192;2023-03-20T07:27:52;100412.77;;;9.85;54.63
39177;BME280;24904;52.208;21.192;2023-03-20T07:32:58;100415.70;;;10.08;54.15
39177;BME280;24904;52.208;21.192;2023-03-20T07:38:05;100414.54;;;10.31;53.64
39177;BME280;24904;52.208;21.192;2023-03-20T07:43:12;100411.75;;;10.53;53.34
39177;BME280;24904;52.208;21.192;2023-03-20T07:48:37;100410.04;;;10.83;53.24
39177;BME280;24904;52.208;21.192;2023-03-20T07:53:41;100412.58;;;11.08;52.83
39177;BME280;24904;52.208;21.192;2023-03-20T07:58:47;100408.09;;;11.34;52.33
39177;BME280;24904;52.208;21.192;2023-03-20T08:03:51;100408.66;;;11.55;51.67
39177;BME280;24904;52.208;21.192;2023-03-20T08:08:56;100410.82;;;11.79;51.42
39177;BME280;24904;52.208;21.192;2023-03-20T08:14:00;100403.39;;;11.99;50.94
39177;BME280;24904;52.208;21.192;2023-03-20T08:19:04;100398.36;;;12.25;50.50
39177;BME280;24904;52.208;21.192;2023-03-20T08:24:09;100401.29;;;12.52;50.27
39177;BME280;24904;52.208;21.192;2023-03-20T08:29:13;100401.76;;;12.74;49.73
39177;BME280;24904;52.208;21.192;2023-03-20T08:34:21;100400.54;;;12.93;48.72
39177;BME280;24904;52.208;21.192;2023-03-20T08:39:25;100398.84;;;12.97;47.99
39177;BME280;24904;52.208;21.192;2023-03-20T08:53:46;100390.14;;;13.29;47.01
39177;BME280;24904;52.208;21.192;2023-03-20T08:58:51;100397.31;;;13.45;46.92
39177;BME280;24904;52.208;21.192;2023-03-20T09:03:58;100395.42;;;13.58;46.19
39177;BME280;24904;52.208;21.192;2023-03-20T09:09:03;100398.93;;;13.79;46.44
39177;BME280;24904;52.208;21.192;2023-03-20T09:14:08;100397.63;;;14.03;46.06
39177;BME280;24904;52.208;21.192;2023-03-20T09:19:13;100397.96;;;14.20;45.71
39177;BME280;24904;52.208;21.192;2023-03-20T09:24:18;100400.00;;;14.27;45.31
39177;BME280;24904;52.208;21.192;2023-03-20T09:29:23;100394.31;;;14.29;45.50
39177;BME280;24904;52.208;21.192;2023-03-20T09:34:28;100393.66;;;14.34;45.22
39177;BME280;24904;52.208;21.192;2023-03-20T09:39:34;100390.19;;;14.37;44.57
39177;BME280;24904;52.208;21.192;2023-03-20T09:44:49;100392.45;;;14.47;44.16
39177;BME280;24904;52.208;21.192;2023-03-20T09:50:11;100386.58;;;14.70;43.98
39177;BME280;24904;52.208;21.192;2023-03-20T09:55:20;100384.77;;;14.93;43.94
39177;BME280;24904;52.208;21.192;2023-03-20T10:00:29;100383.38;;;15.12;43.16
39177;BME280;24904;52.208;21.192;2023-03-20T10:05:43;100384.66;;;15.10;42.34
39177;BME280;24904;52.208;21.192;2023-03-20T10:10:54;100385.63;;;14.96;41.98
39177;BME280;24904;52.208;21.192;2023-03-20T10:16:06;100386.80;;;14.86;41.79
39177;BME280;24904;52.208;21.192;2023-03-20T10:21:17;100380.88;;;14.71;41.90
39177;BME280;24904;52.208;21.192;2023-03-20T10:26:27;100383.73;;;14.69;42.22
39177;BME280;24904;52.208;21.192;2023-03-20T10:31:42;100382.45;;;14.72;42.56
39177;BME280;24904;52.208;21.192;2023-03-20T10:36:55;100378.08;;;14.77;42.38
39177;BME280;24904;52.208;21.192;2023-03-20T10:42:12;100376.85;;;14.85;42.25
39177;BME280;24904;52.208;21.192;2023-03-20T10:47:21;100372.91;;;14.98;42.05
39177;BME280;24904;52.208;21.192;2023-03-20T10:52:31;100371.41;;;15.07;41.94
39177;BME280;24904;52.208;21.192;2023-03-20T10:57:39;100371.88;;;15.10;42.01
39177;BME280;24904;52.208;21.192;2023-03-20T11:02:48;100373.63;;;15.08;42.17
39177;BME280;24904;52.208;21.192;2023-03-20T11:08:02;100371.71;;;15.09;42.18
39177;BME280;24904;52.208;21.192;2023-03-20T11:13:25;100369.41;;;15.11;42.23
39177;BME280;24904;52.208;21.192;2023-03-20T11:18:31;100370.95;;;15.05;41.63
39177;BME280;24904;52.208;21.192;2023-03-20T11:23:38;100371.73;;;15.03;42.43
39177;BME280;24904;52.208;21.192;2023-03-20T11:28:49;100368.52;;;15.03;42.30
39177;BME280;24904;52.208;21.192;2023-03-20T11:34:10;100360.07;;;15.01;42.42
39177;BME280;24904;52.208;21.192;2023-03-20T11:39:22;100356.11;;;15.01;42.59
39177;BME280;24904;52.208;21.192;2023-03-20T11:44:28;100351.60;;;15.02;43.04
39177;BME280;24904;52.208;21.192;2023-03-20T11:49:46;100343.29;;;14.96;43.37
39177;BME280;24904;52.208;21.192;2023-03-20T11:54:55;100340.17;;;14.87;43.82
39177;BME280;24904;52.208;21.192;2023-03-20T12:00:05;100337.04;;;14.98;43.53
39177;BME280;24904;52.208;21.192;2023-03-20T12:05:28;100340.50;;;14.98;43.19
39177;BME280;24904;52.208;21.192;2023-03-20T12:10:37;100335.11;;;14.89;43.50
39177;BME280;24904;52.208;21.192;2023-03-20T12:15:48;100330.41;;;14.85;43.81
39177;BME280;24904;52.208;21.192;2023-03-20T12:21:05;100328.31;;;14.92;44.23
39177;BME280;24904;52.208;21.192;2023-03-20T12:26:12;100323.09;;;14.93;44.26
39177;BME280;24904;52.208;21.192;2023-03-20T12:31:32;100318.20;;;14.93;44.30
39177;BME280;24904;52.208;21.192;2023-03-20T12:36:42;100318.48;;;14.97;44.43
39177;BME280;24904;52.208;21.192;2023-03-20T12:41:57;100316.15;;;15.01;44.72
39177;BME280;24904;52.208;21.192;2023-03-20T12:47:17;100310.99;;;15.02;44.70
39177;BME280;24904;52.208;21.192;2023-03-20T12:52:36;100309.95;;;15.04;45.01
39177;BME280;24904;52.208;21.192;2023-03-20T12:57:52;100309.61;;;15.09;44.78
39177;BME280;24904;52.208;21.192;2023-03-20T13:03:08;100306.08;;;15.14;44.92
39177;BME280;24904;52.208;21.192;2023-03-20T13:08:32;100304.14;;;15.19;44.43
39177;BME280;24904;52.208;21.192;2023-03-20T13:13:47;100302.52;;;15.15;44.38
39177;BME280;24904;52.208;21.192;2023-03-20T13:19:00;100300.77;;;15.09;44.61
39177;BME280;24904;52.208;21.192;2023-03-20T13:24:18;100298.96;;;14.98;44.48
39177;BME280;24904;52.208;21.192;2023-03-20T13:29:32;100301.78;;;14.78;44.65
39177;BME280;24904;52.208;21.192;2023-03-20T13:34:50;100303.55;;;14.63;44.81
39177;BME280;24904;52.208;21.192;2023-03-20T13:40:10;100298.73;;;14.50;45.48
39177;BME280;24904;52.208;21.192;2023-03-20T13:45:32;100293.61;;;14.47;46.20
39177;BME280;24904;52.208;21.192;2023-03-20T13:50:44;100290.80;;;14.41;46.61
39177;BME280;24904;52.208;21.192;2023-03-20T13:55:58;100292.32;;;14.35;47.20
39177;BME280;24904;52.208;21.192;2023-03-20T14:01:09;100288.77;;;14.36;47.83
39177;BME280;24904;52.208;21.192;2023-03-20T14:06:47;100292.02;;;14.33;48.51
39177;BME280;24904;52.208;21.192;2023-03-20T14:14:58;100293.30;;;14.26;49.61
39177;BME280;24904;52.208;21.192;2023-03-20T14:20:19;100295.17;;;14.16;50.68
39177;BME280;24904;52.208;21.192;2023-03-20T14:25:26;100297.67;;;14.09;51.56
39177;BME280;24904;52.208;21.192;2023-03-20T14:30:39;100295.30;;;14.05;52.22
39177;BME280;24904;52.208;21.192;2023-03-20T14:35:44;100294.55;;;13.99;53.10
39177;BME280;24904;52.208;21.192;2023-03-20T14:40:56;100300.96;;;13.90;53.88
39177;BME280;24904;52.208;21.192;2023-03-20T14:46:05;100299.98;;;13.82;54.77
39177;BME280;24904;52.208;21.192;2023-03-20T14:51:26;100299.04;;;13.76;55.77
39177;BME280;24904;52.208;21.192;2023-03-20T14:56:33;100303.25;;;13.68;56.81
39177;BME280;24904;52.208;21.192;2023-03-20T15:01:57;100302.33;;;13.55;57.58
39177;BME280;24904;52.208;21.192;2023-03-20T15:07:03;100300.06;;;13.46;58.27
39177;BME280;24904;52.208;21.192;2023-03-20T15:12:09;100294.88;;;13.40;58.60
39177;BME280;24904;52.208;21.192;2023-03-20T15:17:19;100296.69;;;13.41;59.34
39177;BME280;24904;52.208;21.192;2023-03-20T15:22:22;100300.23;;;13.34;60.08
39177;BME280;24904;52.208;21.192;2023-03-20T15:30:16;100296.87;;;13.27;60.38
39177;BME280;24904;52.208;21.192;2023-03-20T15:35:25;100302.05;;;13.19;61.03
39177;BME280;24904;52.208;21.192;2023-03-20T15:40:32;100302.98;;;13.13;61.52
39177;BME280;24904;52.208;21.192;2023-03-20T15:45:40;100311.58;;;13.02;61.79
39177;BME280;24904;52.208;21.192;2023-03-20T15:50:48;100315.98;;;12.96;62.43
39177;BME280;24904;52.208;21.192;2023-03-20T15:56:00;100318.65;;;12.89;63.18
39177;BME280;24904;52.208;21.192;2023-03-20T16:01:07;100317.23;;;12.84;63.69
39177;BME280;24904;52.208;21.192;2023-03-20T16:06:16;100319.51;;;12.79;64.28
39177;BME280;24904;52.208;21.192;2023-03-20T16:11:22;100320.13;;;12.74;64.54
39177;BME280;24904;52.208;21.192;2023-03-20T16:16:27;100325.64;;;12.72;64.73
39177;BME280;24904;52.208;21.192;2023-03-20T16:21:42;100330.68;;;12.69;65.02
39177;BME280;24904;52.208;21.192;2023-03-20T16:26:51;100328.37;;;12.63;65.06
39177;BME280;24904;52.208;21.192;2023-03-20T16:32:00;100330.17;;;12.56;65.18
39177;BME280;24904;52.208;21.192;2023-03-20T16:37:20;100324.48;;;12.49;65.25
39177;BME280;24904;52.208;21.192;2023-03-20T16:42:29;100317.60;;;12.36;65.68
39177;BME280;24904;52.208;21.192;2023-03-20T16:47:38;100311.22;;;12.29;65.94
39177;BME280;24904;52.208;21.192;2023-03-20T16:52:47;100318.48;;;12.13;66.49
39177;BME280;24904;52.208;21.192;2023-03-20T16:57:52;100315.20;;;12.00;67.07
39177;BME280;24904;52.208;21.192;2023-03-20T17:03:11;100321.51;;;11.89;67.41
39177;BME280;24904;52.208;21.192;2023-03-20T17:08:25;100327.08;;;11.75;67.76
39177;BME280;24904;52.208;21.192;2023-03-20T17:13:31;100322.89;;;11.70;67.81
39177;BME280;24904;52.208;21.192;2023-03-20T17:18:37;100335.10;;;11.64;68.19
39177;BME280;24904;52.208;21.192;2023-03-20T17:23:42;100341.16;;;11.53;68.55
39177;BME280;24904;52.208;21.192;2023-03-20T17:28:47;100345.67;;;11.47;68.59
39177;BME280;24904;52.208;21.192;2023-03-20T17:33:53;100345.11;;;11.46;68.66
39177;BME280;24904;52.208;21.192;2023-03-20T17:38:59;100344.46;;;11.42;68.82
39177;BME280;24904;52.208;21.192;2023-03-20T17:44:04;100341.48;;;11.42;68.98
39177;BME280;24904;52.208;21.192;2023-03-20T17:49:13;100345.15;;;11.40;68.96
39177;BME280;24904;52.208;21.192;2023-03-20T17:54:19;100335.84;;;11.35;68.97
39177;BME280;24904;52.208;21.192;2023-03-20T17:59:24;100331.50;;;11.30;69.00
39177;BME280;24904;52.208;21.192;2023-03-20T18:04:33;100334.70;;;11.28;69.36
39177;BME280;24904;52.208;21.192;2023-03-20T18:09:38;100332.58;;;11.27;69.19
39177;BME280;24904;52.208;21.192;2023-03-20T18:14:44;100325.38;;;11.22;69.26
39177;BME280;24904;52.208;21.192;2023-03-20T18:19:49;100321.50;;;11.17;69.39
39177;BME280;24904;52.208;21.192;2023-03-20T18:24:54;100332.82;;;11.18;69.57
39177;BME280;24904;52.208;21.192;2023-03-20T18:29:59;100340.79;;;11.14;69.48
39177;BME280;24904;52.208;21.192;2023-03-20T18:35:05;100343.23;;;11.07;69.71
39177;BME280;24904;52.208;21.192;2023-03-20T18:40:17;100344.00;;;11.03;70.02
39177;BME280;24904;52.208;21.192;2023-03-20T18:45:23;100338.94;;;10.99;70.29
39177;BME280;24904;52.208;21.192;2023-03-20T18:50:31;100345.17;;;10.95;70.27
39177;BME280;24904;52.208;21.192;2023-03-20T18:55:38;100345.31;;;10.93;70.44
39177;BME280;24904;52.208;21.192;2023-03-20T19:00:43;100341.81;;;10.87;70.61
39177;BME280;24904;52.208;21.192;2023-03-20T19:05:48;100339.80;;;10.83;70.84
39177;BME280;24904;52.208;21.192;2023-03-20T19:10:54;100337.08;;;10.76;70.67
39177;BME280;24904;52.208;21.192;2023-03-20T19:15:59;100334.02;;;10.69;71.01
39177;BME280;24904;52.208;21.192;2023-03-20T19:21:04;100336.65;;;10.65;70.99
39177;BME280;24904;52.208;21.192;2023-03-20T19:26:15;100336.16;;;10.56;70.86
39177;BME280;24904;52.208;21.192;2023-03-20T19:31:20;100340.57;;;10.50;71.04
39177;BME280;24904;52.208;21.192;2023-03-20T19:36:28;100345.09;;;10.47;71.24
39177;BME280;24904;52.208;21.192;2023-03-20T19:41:33;100347.66;;;10.45;71.24
39177;BME280;24904;52.208;21.192;2023-03-20T19:46:38;100344.30;;;10.39;71.26
39177;BME280;24904;52.208;21.192;2023-03-20T19:51:43;100343.02;;;10.39;71.51
39177;BME280;24904;52.208;21.192;2023-03-20T19:56:49;100346.25;;;10.40;71.45
39177;BME280;24904;52.208;21.192;2023-03-20T20:01:54;100346.15;;;10.31;71.16
39177;BME280;24904;52.208;21.192;2023-03-20T20:06:59;100346.54;;;10.24;71.36
39177;BME280;24904;52.208;21.192;2023-03-20T20:12:04;100342.63;;;10.25;71.27
39177;BME280;24904;52.208;21.192;2023-03-20T20:17:10;100340.58;;;10.24;71.28
39177;BME280;24904;52.208;21.192;2023-03-20T20:22:15;100336.41;;;10.23;71.17
39177;BME280;24904;52.208;21.192;2023-03-20T20:27:20;100334.39;;;10.19;71.27
39177;BME280;24904;52.208;21.192;2023-03-20T20:32:26;100335.48;;;10.24;71.60
39177;BME280;24904;52.208;21.192;2023-03-20T20:37:32;100341.77;;;10.25;71.71
39177;BME280;24904;52.208;21.192;2023-03-20T20:42:39;100353.09;;;10.22;71.84
39177;BME280;24904;52.208;21.192;2023-03-20T20:47:46;100354.81;;;10.10;72.94
39177;BME280;24904;52.208;21.192;2023-03-20T20:52:51;100361.40;;;9.98;74.33
39177;BME280;24904;52.208;21.192;2023-03-20T20:57:57;100363.10;;;9.90;75.82
39177;BME280;24904;52.208;21.192;2023-03-20T21:03:03;100366.20;;;9.88;76.01
39177;BME280;24904;52.208;21.192;2023-03-20T21:08:09;100362.16;;;9.85;76.43
39177;BME280;24904;52.208;21.192;2023-03-20T21:13:16;100358.05;;;9.83;76.66
39177;BME280;24904;52.208;21.192;2023-03-20T21:18:21;100359.06;;;9.87;77.00
39177;BME280;24904;52.208;21.192;2023-03-20T21:23:26;100355.09;;;9.89;77.06
39177;BME280;24904;52.208;21.192;2023-03-20T21:28:32;100356.13;;;9.90;76.89
39177;BME280;24904;52.208;21.192;2023-03-20T21:33:37;100360.98;;;9.90;77.20
39177;BME280;24904;52.208;21.192;2023-03-20T21:38:42;100359.19;;;9.86;77.38
39177;BME280;24904;52.208;21.192;2023-03-20T21:43:47;100358.80;;;9.85;77.28
39177;BME280;24904;52.208;21.192;2023-03-20T21:48:53;100362.30;;;9.78;77.56
39177;BME280;24904;52.208;21.192;2023-03-20T21:53:58;100355.10;;;9.79;77.78
39177;BME280;24904;52.208;21.192;2023-03-20T21:59:03;100355.18;;;9.80;77.81
39177;BME280;24904;52.208;21.192;2023-03-20T22:04:09;100356.40;;;9.71;78.14
39177;BME280;24904;52.208;21.192;2023-03-20T22:09:14;100355.12;;;9.70;78.06
39177;BME280;24904;52.208;21.192;2023-03-20T22:14:19;100349.19;;;9.71;78.27
39177;BME280;24904;52.208;21.192;2023-03-20T22:19:24;100344.77;;;9.74;78.27
39177;BME280;24904;52.208;21.192;2023-03-20T22:24:30;100342.53;;;9.76;78.35
39177;BME280;24904;52.208;21.192;2023-03-20T22:29:35;100342.95;;;9.72;78.34
39177;BME280;24904;52.208;21.192;2023-03-20T22:34:40;100348.48;;;9.64;78.37
39177;BME280;24904;52.208;21.192;2023-03-20T22:39:45;100349.71;;;9.58;78.34
39177;BME280;24904;52.208;21.192;2023-03-20T22:44:50;100349.19;;;9.49;78.58
39177;BME280;24904;52.208;21.192;2023-03-20T22:49:55;100350.61;;;9.40;78.63
39177;BME280;24904;52.208;21.192;2023-03-20T22:55:00;100349.42;;;9.33;79.03
39177;BME280;24904;52.208;21.192;2023-03-20T23:00:08;100348.21;;;9.27;79.23
39177;BME280;24904;52.208;21.192;2023-03-20T23:05:13;100350.75;;;9.24;79.26
39177;BME280;24904;52.208;21.192;2023-03-20T23:10:18;100348.16;;;9.24;79.40
39177;BME280;24904;52.208;21.192;2023-03-20T23:15:23;100347.25;;;9.20;79.68
39177;BME280;24904;52.208;21.192;2023-03-20T23:20:28;100350.40;;;9.16;79.40
39177;BME280;24904;52.208;21.192;2023-03-20T23:25:33;100350.20;;;9.14;79.64
39177;BME280;24904;52.208;21.192;2023-03-20T23:30:38;100350.25;;;9.13;79.57
39177;BME280;24904;52.208;21.192;2023-03-20T23:35:43;100348.71;;;9.10;79.88
39177;BME280;24904;52.208;21.192;2023-03-20T23:40:52;100345.40;;;9.08;79.74
39177;BME280;24904;52.208;21.192;2023-03-20T23:45:57;100344.58;;;9.10;79.76
39177;BME280;24904;52.208;21.192;2023-03-20T23:51:02;100342.55;;;9.10;79.46
39177;BME280;24904;52.208;21.192;2023-03-20T23:56:09;100339.88;;;9.11;79.58
